Time;durP1;ratioP1;P1;durP2;ratioP2;P2;SDS_P1;SDS_P2;PMS_P1;PMS_P2;Temp;Humidity;BMP_temperature;BMP_pressure;BME280_temperature;BME280_humidity;BME280_pressure;Samples;Min_cycle;Max_cycle;Signal;HPM_P1;HPM_P2
2024/01/10 00:01:26;;;;;;;14.45;8.00;;;;;;;-7.22;100.00;103537.88;5026538;28;20053;-73
2024/01/10 00:03:54;;;;;;;14.90;8.65;;;;;;;-7.21;100.00;103533.50;5023872;28;20052;-72
2024/01/10 00:06:20;;;;;;;17.10;9.48;;;;;;;-7.21;100.00;103543.94;5016746;28;20044;-72
2024/01/10 00:08:45;;;;;;;18.05;9.50;;;;;;;-7.20;100.00;103529.97;5006734;28;20371;-73
2024/01/10 00:11:11;;;;;;;16.60;8.98;;;;;;;-7.19;100.00;103536.84;4992342;28;20034;-73
2024/01/10 00:13:37;;;;;;;17.15;8.80;;;;;;;-7.20;100.00;103522.16;5014931;23;20072;-72
2024/01/10 00:16:03;;;;;;;16.90;8.85;;;;;;;-7.23;100.00;103536.19;5015986;28;20222;-73
2024/01/10 00:18:30;;;;;;;15.27;8.60;;;;;;;-7.25;100.00;103532.81;5031308;28;20033;-74
2024/01/10 00:20:55;;;;;;;13.38;7.68;;;;;;;-7.22;100.00;103531.84;5034412;28;20574;-74
2024/01/10 00:23:22;;;;;;;16.08;8.95;;;;;;;-7.24;100.00;103536.28;5021166;28;20123;-74
2024/01/10 00:25:49;;;;;;;19.08;9.30;;;;;;;-7.32;100.00;103530.66;5024663;28;20044;-74
2024/01/10 00:28:18;;;;;;;15.60;8.15;;;;;;;-7.31;100.00;103532.34;4992677;28;20025;-74
2024/01/10 00:30:45;;;;;;;15.68;8.55;;;;;;;-7.34;100.00;103527.28;5042606;28;20037;-73
2024/01/10 00:33:11;;;;;;;15.48;8.98;;;;;;;-7.37;100.00;103527.47;5023582;28;20039;-74
2024/01/10 00:35:37;;;;;;;14.88;8.18;;;;;;;-7.42;100.00;103532.94;5042939;28;20049;-74
2024/01/10 00:38:03;;;;;;;16.90;8.93;;;;;;;-7.43;100.00;103528.66;4994964;28;20041;-74
2024/01/10 00:40:29;;;;;;;14.88;8.25;;;;;;;-7.44;100.00;103532.19;5037545;28;20627;-72
2024/01/10 00:42:54;;;;;;;14.77;7.85;;;;;;;-7.46;100.00;103529.63;5026392;28;20482;-73
2024/01/10 00:45:20;;;;;;;16.60;8.13;;;;;;;-7.46;100.00;103524.44;5008517;28;20044;-73
2024/01/10 00:47:49;;;;;;;17.65;8.73;;;;;;;-7.45;100.00;103525.25;5023365;28;20086;-73
2024/01/10 00:50:14;;;;;;;14.40;7.50;;;;;;;-7.48;100.00;103520.25;5008258;28;20629;-74
2024/01/10 00:52:41;;;;;;;14.43;7.50;;;;;;;-7.52;100.00;103513.50;5024015;28;20044;-72
2024/01/10 00:55:07;;;;;;;15.38;7.78;;;;;;;-7.56;100.00;103525.88;5009925;28;20502;-73
2024/01/10 00:57:32;;;;;;;17.65;8.05;;;;;;;-7.58;100.00;103524.28;5036756;28;20045;-74
2024/01/10 00:59:58;;;;;;;17.85;8.82;;;;;;;-7.65;100.00;103518.56;4987913;28;20051;-73
2024/01/10 01:02:24;;;;;;;13.48;7.75;;;;;;;-7.67;100.00;103519.53;5039560;28;20036;-73
2024/01/10 01:04:49;;;;;;;17.30;8.38;;;;;;;-7.71;100.00;103521.50;5034232;28;20041;-74
2024/01/10 01:07:15;;;;;;;16.00;8.23;;;;;;;-7.74;100.00;103524.25;5041874;28;20104;-73
2024/01/10 01:09:44;;;;;;;14.48;7.97;;;;;;;-7.76;100.00;103518.28;5025436;28;20044;-74
2024/01/10 01:12:10;;;;;;;16.60;9.15;;;;;;;-7.80;100.00;103515.00;5006687;28;20025;-73
2024/01/10 01:14:36;;;;;;;13.18;7.70;;;;;;;-7.83;100.00;103517.78;5013480;28;20075;-74
2024/01/10 01:17:02;;;;;;;15.35;8.82;;;;;;;-7.84;100.00;103515.25;5024493;28;20441;-74
2024/01/10 01:19:27;;;;;;;17.08;7.88;;;;;;;-7.88;100.00;103511.97;5009448;28;20064;-74
2024/01/10 01:21:53;;;;;;;17.45;9.00;;;;;;;-7.94;100.00;103514.88;5006984;28;20037;-74
2024/01/10 01:24:18;;;;;;;16.15;7.93;;;;;;;-7.94;100.00;103517.50;5021099;28;20046;-73
2024/01/10 01:26:44;;;;;;;12.80;7.43;;;;;;;-7.97;100.00;103517.66;5023642;28;20152;-74
2024/01/10 01:29:10;;;;;;;13.45;7.68;;;;;;;-8.00;100.00;103523.84;5040392;28;20351;-74
2024/01/10 01:31:37;;;;;;;17.50;8.55;;;;;;;-8.02;100.00;103520.50;5035736;28;20047;-73
2024/01/10 01:34:02;;;;;;;14.18;8.15;;;;;;;-8.04;100.00;103517.13;5023263;28;20035;-72
2024/01/10 01:36:28;;;;;;;14.30;7.82;;;;;;;-8.02;100.00;103519.66;5013912;28;20399;-73
2024/01/10 01:38:54;;;;;;;14.63;8.45;;;;;;;-8.05;100.00;103518.06;5022229;28;20029;-72
2024/01/10 01:41:19;;;;;;;15.57;8.07;;;;;;;-8.05;100.00;103520.66;5019123;28;20447;-74
2024/01/10 01:43:45;;;;;;;16.13;8.10;;;;;;;-8.04;100.00;103522.34;5020852;28;20045;-74
2024/01/10 01:46:12;;;;;;;17.50;9.32;;;;;;;-8.06;100.00;103524.19;5020072;28;20045;-73
2024/01/10 01:48:38;;;;;;;13.82;7.38;;;;;;;-8.05;100.00;103522.44;5005453;28;20119;-73
2024/01/10 01:51:06;;;;;;;17.20;8.35;;;;;;;-8.07;100.00;103519.88;5016132;28;20128;-74
2024/01/10 01:53:36;;;;;;;16.55;8.48;;;;;;;-8.07;100.00;103521.66;4986540;28;20486;-74
2024/01/10 01:56:06;;;;;;;16.27;8.73;;;;;;;-8.10;100.00;103516.63;4987616;28;20528;-73
2024/01/10 01:58:33;;;;;;;15.77;8.10;;;;;;;-8.11;100.00;103520.16;4998471;28;20048;-73
2024/01/10 02:01:00;;;;;;;18.67;8.68;;;;;;;-8.13;100.00;103516.75;5029991;28;20071;-73
2024/01/10 02:03:26;;;;;;;14.98;7.90;;;;;;;-8.12;100.00;103516.72;5018834;28;20037;-74
2024/01/10 02:05:52;;;;;;;16.20;7.93;;;;;;;-8.15;100.00;103518.59;5024608;28;20033;-73
2024/01/10 02:08:17;;;;;;;18.17;8.93;;;;;;;-8.18;100.00;103524.81;5038444;28;20043;-74
2024/01/10 02:10:43;;;;;;;17.35;7.82;;;;;;;-8.19;100.00;103520.53;5023194;28;20098;-74
2024/01/10 02:13:11;;;;;;;17.45;8.65;;;;;;;-8.20;100.00;103526.63;5032936;28;20685;-73
2024/01/10 02:15:38;;;;;;;18.52;9.38;;;;;;;-8.17;100.00;103526.50;5002798;28;20044;-74
2024/01/10 02:18:05;;;;;;;15.45;7.85;;;;;;;-8.17;100.00;103523.91;4999140;28;20033;-73
2024/01/10 02:20:31;;;;;;;21.00;9.32;;;;;;;-8.17;100.00;103523.91;5019910;28;20040;-74
2024/01/10 02:22:57;;;;;;;19.08;9.50;;;;;;;-8.16;100.00;103516.94;5015523;28;20080;-75
2024/01/10 02:25:23;;;;;;;18.80;8.60;;;;;;;-8.14;100.00;103515.09;5000835;28;20048;-73
2024/01/10 02:27:49;;;;;;;21.70;10.18;;;;;;;-8.14;100.00;103505.53;5020937;28;20074;-74
2024/01/10 02:30:15;;;;;;;19.02;9.27;;;;;;;-8.13;100.00;103517.59;5006761;28;20055;-75
2024/01/10 02:32:41;;;;;;;20.25;9.35;;;;;;;-8.13;100.00;103508.97;5018498;28;20116;-74
2024/01/10 02:35:07;;;;;;;18.13;10.05;;;;;;;-8.12;100.00;103502.88;5019167;28;20403;-73
2024/01/10 02:37:33;;;;;;;22.85;10.95;;;;;;;-8.15;100.00;103509.03;5024356;28;20029;-73
2024/01/10 02:39:59;;;;;;;22.83;9.75;;;;;;;-8.12;100.00;103508.06;5038341;28;20033;-73
2024/01/10 02:42:27;;;;;;;25.38;10.70;;;;;;;-8.12;100.00;103514.09;5022778;28;20037;-73
2024/01/10 02:44:53;;;;;;;23.27;10.93;;;;;;;-8.11;100.00;103515.78;4983618;28;20041;-75
2024/01/10 02:47:19;;;;;;;22.38;10.13;;;;;;;-8.03;100.00;103524.03;4994153;28;20426;-73
2024/01/10 02:49:45;;;;;;;24.10;10.60;;;;;;;-8.00;100.00;103513.44;5018966;28;20064;-74
2024/01/10 02:52:12;;;;;;;23.50;10.90;;;;;;;-7.97;100.00;103512.47;4987861;28;20075;-74
2024/01/10 02:54:38;;;;;;;21.13;10.15;;;;;;;-7.95;100.00;103521.00;5014988;28;20700;-74
2024/01/10 02:57:03;;;;;;;19.63;10.32;;;;;;;-7.92;100.00;103518.28;5002188;28;20576;-73
2024/01/10 02:59:29;;;;;;;24.42;10.45;;;;;;;-7.93;100.00;103513.13;5017503;28;20030;-74
2024/01/10 03:01:55;;;;;;;23.33;9.63;;;;;;;-7.89;100.00;103519.84;5021149;28;20441;-73
2024/01/10 03:04:20;;;;;;;23.20;10.68;;;;;;;-7.91;100.00;103517.34;5019857;28;20806;-73
2024/01/10 03:06:46;;;;;;;23.17;10.15;;;;;;;-7.93;100.00;103515.72;5038621;28;20414;-74
2024/01/10 03:09:11;;;;;;;19.45;9.73;;;;;;;-7.95;100.00;103514.97;5029911;28;20055;-72
2024/01/10 03:11:37;;;;;;;23.75;10.38;;;;;;;-8.00;100.00;103515.19;5015315;28;20407;-75
2024/01/10 03:14:08;;;;;;;20.75;10.07;;;;;;;-8.07;100.00;103517.28;4998672;28;20041;-73
2024/01/10 03:16:33;;;;;;;20.90;9.23;;;;;;;-8.05;100.00;103512.88;5027942;28;20681;-76
2024/01/10 03:19:00;;;;;;;22.55;10.15;;;;;;;-8.04;100.00;103511.09;5034117;28;20494;-74
2024/01/10 03:21:26;;;;;;;21.98;9.57;;;;;;;-8.05;100.00;103502.47;5018339;28;20045;-74
2024/01/10 03:24:01;;;;;;;21.70;10.80;;;;;;;-8.04;100.00;103509.34;5023139;28;20047;-74
2024/01/10 03:26:28;;;;;;;23.17;10.48;;;;;;;-8.05;100.00;103505.06;5007653;28;20042;-75
2024/01/10 03:28:54;;;;;;;20.55;10.00;;;;;;;-8.05;100.00;103505.06;4986862;28;20025;-74
2024/01/10 03:31:20;;;;;;;25.50;10.77;;;;;;;-8.07;100.00;103495.63;5036288;28;20034;-74
2024/01/10 03:33:46;;;;;;;19.25;8.95;;;;;;;-8.07;100.00;103498.25;5002429;28;20095;-74
2024/01/10 03:36:14;;;;;;;19.05;9.27;;;;;;;-8.06;100.00;103489.50;5008704;28;20073;-74
2024/01/10 03:38:40;;;;;;;22.77;10.20;;;;;;;-8.09;100.00;103494.88;5007806;28;20063;-74
2024/01/10 03:41:06;;;;;;;20.63;10.20;;;;;;;-8.12;100.00;103485.50;4993228;28;20029;-74
2024/01/10 03:43:32;;;;;;;18.83;8.65;;;;;;;-8.13;100.00;103491.59;5043112;28;20029;-73
2024/01/10 03:45:59;;;;;;;21.33;9.88;;;;;;;-8.17;100.00;103490.09;5045717;28;20112;-74
2024/01/10 03:48:24;;;;;;;22.42;10.40;;;;;;;-8.14;100.00;103489.09;5044337;28;20443;-74
2024/01/10 03:50:50;;;;;;;23.20;9.43;;;;;;;-8.16;100.00;103496.97;5006531;28;20530;-76
2024/01/10 03:53:16;;;;;;;25.35;11.05;;;;;;;-8.13;100.00;103491.59;5042492;28;20086;-74
2024/01/10 03:55:42;;;;;;;25.77;9.88;;;;;;;-8.11;100.00;103494.13;5026007;28;20823;-74
2024/01/10 03:58:08;;;;;;;21.42;10.02;;;;;;;-8.14;100.00;103495.13;5007203;28;20072;-74
2024/01/10 04:00:34;;;;;;;24.05;9.32;;;;;;;-8.14;100.00;103489.91;5011483;28;20033;-73
2024/01/10 04:02:59;;;;;;;22.33;9.32;;;;;;;-8.15;100.00;103483.03;5038179;28;20064;-74
2024/01/10 04:05:25;;;;;;;21.25;8.57;;;;;;;-8.16;100.00;103483.13;5028677;28;20055;-75
2024/01/10 04:07:51;;;;;;;19.40;8.55;;;;;;;-8.15;100.00;103483.03;5006698;28;20052;-74
2024/01/10 04:10:17;;;;;;;23.15;9.68;;;;;;;-8.16;100.00;103476.16;5016481;28;20029;-74
2024/01/10 04:12:44;;;;;;;18.08;8.40;;;;;;;-8.19;100.00;103472.91;5007262;28;20052;-74
2024/01/10 04:15:10;;;;;;;18.08;8.55;;;;;;;-8.21;100.00;103466.91;5009381;28;20037;-73
2024/01/10 04:17:36;;;;;;;18.55;7.82;;;;;;;-8.23;100.00;103461.81;5039006;28;20134;-73
2024/01/10 04:20:02;;;;;;;19.60;8.43;;;;;;;-8.28;100.00;103462.03;5002209;28;20079;-75
2024/01/10 04:22:28;;;;;;;19.83;8.25;;;;;;;-8.29;100.00;103473.38;4986451;28;20079;-75
2024/01/10 04:24:57;;;;;;;16.42;7.25;;;;;;;-8.32;100.00;103473.53;5025059;28;20577;-74
2024/01/10 04:27:23;;;;;;;15.73;7.82;;;;;;;-8.32;100.00;103464.91;5006245;28;20045;-73
2024/01/10 04:29:49;;;;;;;19.58;8.50;;;;;;;-8.31;100.00;103463.97;5022557;28;20589;-74
2024/01/10 04:32:14;;;;;;;21.40;8.75;;;;;;;-8.30;100.00;103468.25;5005432;28;20087;-73
2024/01/10 04:34:40;;;;;;;20.83;8.27;;;;;;;-8.32;100.00;103472.69;5008792;28;20091;-74
2024/01/10 04:37:06;;;;;;;18.92;8.45;;;;;;;-8.36;100.00;103479.00;5042167;28;20064;-74
2024/01/10 04:39:34;;;;;;;18.85;7.97;;;;;;;-8.37;100.00;103479.91;5008898;28;20411;-74
2024/01/10 04:42:00;;;;;;;18.02;8.45;;;;;;;-8.36;100.00;103484.19;5022125;28;20440;-74
2024/01/10 04:44:26;;;;;;;17.58;8.70;;;;;;;-8.32;100.00;103483.09;5030013;28;20459;-74
2024/01/10 04:46:51;;;;;;;19.67;8.80;;;;;;;-8.23;100.00;103474.81;5023568;28;20072;-74
2024/01/10 04:49:17;;;;;;;17.60;8.38;;;;;;;-8.16;100.00;103470.13;5041604;28;20388;-73
2024/01/10 04:51:43;;;;;;;16.80;7.40;;;;;;;-8.09;100.00;103472.31;5018134;28;20094;-73
2024/01/10 04:54:09;;;;;;;20.40;10.00;;;;;;;-8.04;100.00;103467.72;5018863;28;20041;-74
2024/01/10 04:56:38;;;;;;;19.27;8.45;;;;;;;-7.95;100.00;103457.75;5011007;28;20518;-74
2024/01/10 04:59:05;;;;;;;21.02;8.90;;;;;;;-7.86;100.00;103463.28;5005376;28;20522;-73
2024/01/10 05:01:31;;;;;;;18.75;8.52;;;;;;;-7.79;100.00;103456.00;5010976;28;20037;-74
2024/01/10 05:03:57;;;;;;;18.17;8.75;;;;;;;-7.74;100.00;103460.03;5024331;28;20036;-74
2024/01/10 05:06:23;;;;;;;20.92;9.73;;;;;;;-7.66;100.00;103448.38;5020257;28;20041;-73
2024/01/10 05:08:49;;;;;;;20.73;8.52;;;;;;;-7.59;100.00;103454.91;5006965;28;20414;-73
2024/01/10 05:11:15;;;;;;;17.70;8.30;;;;;;;-7.53;100.00;103455.41;5027216;28;20033;-74
2024/01/10 05:13:42;;;;;;;21.05;9.18;;;;;;;-7.48;100.00;103448.19;5005869;28;20041;-74
2024/01/10 05:16:08;;;;;;;17.55;8.68;;;;;;;-7.43;100.00;103460.97;5005721;28;20397;-73
2024/01/10 05:18:34;;;;;;;21.95;10.18;;;;;;;-7.35;100.00;103452.72;5010126;28;20025;-74
2024/01/10 05:21:01;;;;;;;19.33;9.32;;;;;;;-7.32;100.00;103449.94;5037766;28;20051;-74
2024/01/10 05:23:27;;;;;;;20.45;10.15;;;;;;;-7.29;100.00;103447.16;5041442;28;20130;-74
2024/01/10 05:25:54;;;;;;;20.05;9.73;;;;;;;-7.22;100.00;103446.72;5008392;28;20520;-74
2024/01/10 05:28:19;;;;;;;25.67;11.25;;;;;;;-7.15;100.00;103450.66;5019589;28;20041;-73
2024/01/10 05:30:45;;;;;;;22.40;10.20;;;;;;;-7.07;100.00;103452.81;5023872;28;20863;-72
2024/01/10 05:33:11;;;;;;;23.02;11.55;;;;;;;-6.98;100.00;103457.50;5040751;28;20056;-75
2024/01/10 05:35:38;;;;;;;22.60;11.93;;;;;;;-6.90;100.00;103451.88;5004979;28;20041;-74
2024/01/10 05:38:05;;;;;;;25.23;11.73;;;;;;;-6.80;100.00;103462.59;5037495;28;20030;-73
2024/01/10 05:40:32;;;;;;;26.10;12.10;;;;;;;-6.71;100.00;103469.84;5038274;28;20048;-74
2024/01/10 05:43:00;;;;;;;24.67;12.15;;;;;;;-6.63;100.00;103462.47;5022695;28;20040;-74
2024/01/10 05:45:26;;;;;;;26.45;12.02;;;;;;;-6.56;100.00;103461.16;5041378;28;20037;-74
2024/01/10 05:47:52;;;;;;;24.45;11.55;;;;;;;-6.50;100.00;103463.41;4984181;28;20061;-75
2024/01/10 05:50:19;;;;;;;24.17;11.45;;;;;;;-6.43;100.00;103464.72;5027853;28;20079;-75
2024/01/10 05:52:45;;;;;;;28.67;12.57;;;;;;;-6.38;100.00;103462.66;5023597;28;20089;-74
2024/01/10 05:55:11;;;;;;;25.58;12.50;;;;;;;-6.29;100.00;103463.06;5020693;28;20037;-73
2024/01/10 05:57:37;;;;;;;26.13;12.05;;;;;;;-6.24;100.00;103468.81;5008137;28;20032;-73
2024/01/10 06:00:05;;;;;;;27.80;12.10;;;;;;;-6.20;100.00;103463.31;5016462;28;20053;-73
2024/01/10 06:02:31;;;;;;;26.30;12.18;;;;;;;-6.14;100.00;103462.97;4997613;28;20120;-73
2024/01/10 06:04:56;;;;;;;24.52;12.30;;;;;;;-6.09;100.00;103467.91;5034238;28;20120;-73
2024/01/10 06:07:22;;;;;;;25.23;11.73;;;;;;;-6.04;100.00;103463.22;4999193;28;20472;-74
2024/01/10 06:09:48;;;;;;;21.98;10.23;;;;;;;-5.99;100.00;103453.34;5023475;28;20032;-74
2024/01/10 06:12:14;;;;;;;27.27;12.15;;;;;;;-5.97;100.00;103456.69;5035827;28;20021;-74
2024/01/10 06:14:40;;;;;;;23.95;11.25;;;;;;;-5.94;100.00;103451.28;5021886;28;20075;-74
2024/01/10 06:17:06;;;;;;;22.38;10.75;;;;;;;-5.89;100.00;103454.44;5023374;28;20040;-75
2024/01/10 06:19:32;;;;;;;23.33;10.65;;;;;;;-5.86;100.00;103446.41;5006607;28;20028;-74
2024/01/10 06:21:58;;;;;;;19.58;9.55;;;;;;;-5.82;100.00;103445.28;5041612;28;20032;-74
2024/01/10 06:24:24;;;;;;;22.52;9.95;;;;;;;-5.78;100.00;103448.53;5001929;28;20450;-74
2024/01/10 06:26:49;;;;;;;17.05;8.15;;;;;;;-5.75;100.00;103450.97;5036076;28;20030;-74
2024/01/10 06:29:15;;;;;;;16.55;8.43;;;;;;;-5.70;100.00;103458.47;5018917;28;20493;-75
2024/01/10 06:31:41;;;;;;;22.42;9.50;;;;;;;-5.64;100.00;103453.72;5009641;28;20114;-75
2024/01/10 06:34:08;;;;;;;19.30;9.43;;;;;;;-5.61;100.00;103450.09;5004371;28;20033;-74
2024/01/10 06:36:34;;;;;;;19.65;9.40;;;;;;;-5.57;100.00;103447.16;5030890;28;20029;-75
2024/01/10 06:38:59;;;;;;;19.40;8.52;;;;;;;-5.52;100.00;103463.38;5037191;28;20037;-75
2024/01/10 06:41:25;;;;;;;19.13;9.38;;;;;;;-5.50;100.00;103458.91;5020742;28;20116;-72
2024/01/10 06:43:53;;;;;;;18.38;8.73;;;;;;;-5.45;100.00;103456.00;5007379;28;20347;-73
2024/01/10 06:46:20;;;;;;;22.67;10.48;;;;;;;-5.42;100.00;103463.63;5031726;28;20037;-75
2024/01/10 06:48:46;;;;;;;19.30;8.88;;;;;;;-5.38;100.00;103459.06;5003862;28;20118;-75
2024/01/10 06:51:16;;;;;;;16.65;8.15;;;;;;;-5.33;100.00;103457.84;5036541;28;20418;-75
2024/01/10 06:53:41;;;;;;;20.63;9.30;;;;;;;-5.28;100.00;103460.16;5020082;28;20088;-75
2024/01/10 06:56:09;;;;;;;18.10;9.00;;;;;;;-5.24;100.00;103466.84;5023850;28;20040;-75
2024/01/10 06:58:35;;;;;;;17.85;8.65;;;;;;;-5.23;100.00;103453.69;5023145;28;20032;-75
2024/01/10 07:01:01;;;;;;;19.67;8.25;;;;;;;-5.20;100.00;103457.88;5017565;28;20099;-73
2024/01/10 07:03:27;;;;;;;22.35;9.65;;;;;;;-5.18;100.00;103461.22;5021190;28;20034;-74
2024/01/10 07:05:52;;;;;;;21.80;9.82;;;;;;;-5.15;100.00;103455.78;5002308;28;20056;-75
2024/01/10 07:08:20;;;;;;;18.67;9.40;;;;;;;-5.13;100.00;103453.09;5002727;28;20048;-75
2024/01/10 07:10:45;;;;;;;19.38;9.88;;;;;;;-5.10;100.00;103455.50;5029797;28;20029;-75
2024/01/10 07:13:12;;;;;;;20.65;9.65;;;;;;;-5.06;100.00;103454.38;5014939;28;20134;-75
2024/01/10 07:15:38;;;;;;;16.02;8.82;;;;;;;-5.04;100.00;103457.72;5019280;28;20714;-75
2024/01/10 07:18:04;;;;;;;18.25;8.23;;;;;;;-5.00;100.00;103456.59;5036354;28;20112;-75
2024/01/10 07:20:30;;;;;;;19.50;9.30;;;;;;;-4.99;100.00;103456.47;5022293;28;20063;-74
2024/01/10 07:22:55;;;;;;;18.92;9.65;;;;;;;-5.04;100.00;103448.09;5018252;28;20112;-72
2024/01/10 07:25:25;;;;;;;18.95;10.05;;;;;;;-5.00;100.00;103456.59;5017539;28;20814;-73
2024/01/10 07:27:51;;;;;;;18.65;8.88;;;;;;;-4.97;100.00;103459.81;5017467;28;20071;-74
2024/01/10 07:30:18;;;;;;;20.88;9.95;;;;;;;-4.93;100.00;103460.47;5032149;28;20565;-74
2024/01/10 07:32:45;;;;;;;17.45;8.20;;;;;;;-4.94;100.00;103456.19;5039063;28;20033;-74
2024/01/10 07:35:13;;;;;;;18.83;8.75;;;;;;;-4.94;100.00;103464.03;5003763;28;20031;-75
2024/01/10 07:37:40;;;;;;;17.58;8.65;;;;;;;-4.97;100.00;103458.97;5004717;28;20060;-73
2024/01/10 07:40:07;;;;;;;;;;;;;;;-4.99;100.00;103463.47;5032291;28;20502;-74
2024/01/10 07:42:33;;;;;;;15.93;8.52;;;;;;;-4.99;100.00;103466.09;5014174;28;19960;-74
2024/01/10 07:44:59;;;;;;;16.27;8.48;;;;;;;-4.99;100.00;103471.31;5009347;28;20032;-75
2024/01/10 07:47:25;;;;;;;18.58;8.98;;;;;;;-5.04;100.00;103466.38;5029190;28;20047;-75
2024/01/10 07:49:51;;;;;;;14.52;8.30;;;;;;;-4.99;100.00;103468.72;5021456;28;20063;-73
2024/01/10 07:52:17;;;;;;;16.60;8.50;;;;;;;-4.96;100.00;103466.72;5020511;28;20111;-74
2024/01/10 07:54:42;;;;;;;17.48;8.52;;;;;;;-4.91;100.00;103461.19;5029989;28;20057;-74
2024/01/10 07:57:08;;;;;;;18.85;9.43;;;;;;;-4.91;100.00;103469.03;5002773;28;20180;-76
2024/01/10 07:59:34;;;;;;;17.70;8.90;;;;;;;-4.91;100.00;103466.41;5025585;28;21358;-72
2024/01/10 08:02:00;;;;;;;17.23;9.00;;;;;;;-4.98;100.00;103468.59;5018870;28;20951;-72
2024/01/10 08:04:26;;;;;;;21.40;9.90;;;;;;;-4.98;100.00;103462.53;5003130;28;20048;-74
2024/01/10 08:06:53;;;;;;;16.95;9.05;;;;;;;-4.94;100.00;103466.63;5021601;28;20041;-73
2024/01/10 08:09:19;;;;;;;18.30;8.55;;;;;;;-4.91;100.00;103474.25;5015760;28;20029;-73
2024/01/10 08:11:45;;;;;;;16.58;8.75;;;;;;;-4.94;100.00;103466.63;5024104;28;20074;-73
2024/01/10 08:14:12;;;;;;;17.00;7.93;;;;;;;-4.93;100.00;103475.31;5022425;28;20029;-74
2024/01/10 08:16:38;;;;;;;16.77;8.32;;;;;;;-4.92;100.00;103483.03;4988916;28;20565;-73
2024/01/10 08:19:03;;;;;;;16.92;8.45;;;;;;;-4.95;100.00;103478.00;5020832;28;20037;-75
2024/01/10 08:21:30;;;;;;;;;;;;;;;-4.90;100.00;103486.38;5012169;28;20103;-76
2024/01/10 08:23:55;;;;;;;18.10;8.00;;;;;;;-4.89;100.00;103480.22;5025512;28;19978;-73
2024/01/10 08:26:21;;;;;;;18.15;8.82;;;;;;;-4.84;100.00;103475.53;5003821;28;20044;-76
2024/01/10 08:28:47;;;;;;;17.10;7.45;;;;;;;-4.85;100.00;103473.84;5005870;28;20495;-74
2024/01/10 08:31:16;;;;;;;13.48;6.85;;;;;;;-4.83;100.00;103476.38;5019216;28;20037;-74
2024/01/10 08:33:42;;;;;;;12.43;6.22;;;;;;;-4.82;100.00;103483.25;5025967;28;20123;-75
2024/01/10 08:36:09;;;;;;;15.60;7.82;;;;;;;-4.81;100.00;103479.72;5034792;28;20033;-74
2024/01/10 08:38:35;;;;;;;12.68;6.80;;;;;;;-4.83;100.00;103477.19;5038132;28;20075;-72
2024/01/10 08:41:03;;;;;;;13.85;6.15;;;;;;;-4.84;100.00;103478.16;5043585;28;20033;-75
2024/01/10 08:43:29;;;;;;;13.70;6.95;;;;;;;-4.82;100.00;103488.50;5003312;28;20041;-73
2024/01/10 08:45:54;;;;;;;14.98;6.57;;;;;;;-4.83;100.00;103492.06;5005762;28;20040;-75
2024/01/10 08:48:20;;;;;;;13.18;7.07;;;;;;;-4.86;100.00;103487.88;5003520;28;20043;-75
2024/01/10 08:50:46;;;;;;;12.88;6.72;;;;;;;-4.85;100.00;103481.69;5016303;28;20036;-74
2024/01/10 08:53:11;;;;;;;14.73;7.15;;;;;;;-4.81;100.00;103490.16;5021221;28;20299;-75
2024/01/10 08:55:37;;;;;;;14.18;7.15;;;;;;;-4.80;100.00;103486.63;5004974;28;20047;-75
2024/01/10 08:58:04;;;;;;;14.45;6.72;;;;;;;-4.82;100.00;103478.88;5021886;28;20037;-73
2024/01/10 09:00:31;;;;;;;13.32;6.07;;;;;;;-4.84;100.00;103472.91;5020659;28;20044;-76
2024/01/10 09:02:57;;;;;;;;;;;;;;;-4.79;100.00;103468.22;5017857;28;20031;-74
2024/01/10 09:05:22;;;;;;;10.80;5.72;;;;;;;-4.73;100.00;103469.59;5024417;28;19916;-75
2024/01/10 09:07:49;;;;;;;13.27;6.22;;;;;;;-4.70;100.00;103466.78;5035905;28;20033;-73
2024/01/10 09:10:15;;;;;;;13.65;6.13;;;;;;;-4.72;100.00;103463.44;5037617;28;20807;-74
2024/01/10 09:12:45;;;;;;;12.18;6.07;;;;;;;-4.72;100.00;103458.19;5036339;28;20039;-74
2024/01/10 09:15:13;;;;;;;13.45;6.40;;;;;;;-4.67;100.00;103459.56;5023093;28;20044;-74
2024/01/10 09:17:43;;;;;;;14.80;6.75;;;;;;;-4.57;100.00;103461.56;5003883;28;20040;-75
2024/01/10 09:20:10;;;;;;;16.00;6.43;;;;;;;-4.61;100.00;103452.22;5018472;28;20033;-74
2024/01/10 09:22:36;;;;;;;;;;;;;;;-4.62;100.00;103453.19;5022074;28;20044;-74
2024/01/10 09:25:04;;;;;;;16.05;7.10;;;;;;;-4.61;100.00;103462.69;5034435;28;19916;-74
2024/01/10 09:27:30;;;;;;;13.85;7.05;;;;;;;-4.53;100.00;103455.19;5016733;28;20045;-75
2024/01/10 09:29:56;;;;;;;13.60;6.50;;;;;;;-4.50;100.00;103447.94;5010677;28;20060;-74
2024/01/10 09:32:22;;;;;;;12.93;6.47;;;;;;;-4.54;100.00;103450.88;5024609;28;20071;-73
2024/01/10 09:34:47;;;;;;;10.95;5.75;;;;;;;-4.55;100.00;103450.03;5022943;28;20039;-73
2024/01/10 09:37:13;;;;;;;12.32;5.70;;;;;;;-4.52;100.00;103455.06;5020937;28;20025;-74
2024/01/10 09:39:39;;;;;;;12.15;5.82;;;;;;;-4.52;100.00;103451.63;5039150;28;20518;-75
2024/01/10 09:42:06;;;;;;;10.85;5.65;;;;;;;-4.51;100.00;103456.75;5023175;28;20029;-74
2024/01/10 09:44:33;;;;;;;12.27;6.13;;;;;;;-4.51;100.00;103456.75;5014085;28;20040;-75
2024/01/10 09:47:00;;;;;;;11.63;5.93;;;;;;;-4.50;100.00;103452.34;5009849;28;20120;-75
2024/01/10 09:49:26;;;;;;;13.07;6.22;;;;;;;-4.46;100.00;103440.75;5002868;28;20045;-73
2024/01/10 09:51:56;;;;;;;12.07;5.63;;;;;;;-4.37;100.00;103442.72;4984208;28;20045;-72
2024/01/10 09:54:25;;;;;;;11.40;6.35;;;;;;;-4.38;100.00;103445.44;5003881;28;20094;-75
2024/01/10 09:56:51;;;;;;;12.82;6.13;;;;;;;-4.41;100.00;103441.25;5039656;28;20076;-74
2024/01/10 09:59:17;;;;;;;13.57;6.53;;;;;;;-4.37;100.00;103437.50;5018853;28;20060;-74
2024/01/10 10:01:43;;;;;;;11.13;6.18;;;;;;;-4.27;100.00;103437.69;5033255;28;20090;-74
2024/01/10 10:04:11;;;;;;;10.90;5.63;;;;;;;-4.38;100.00;103435.81;5022192;28;20371;-74
2024/01/10 10:06:37;;;;;;;11.55;6.13;;;;;;;-4.45;100.00;103432.78;5019842;28;20041;-73
2024/01/10 10:09:04;;;;;;;13.20;6.15;;;;;;;-4.35;100.00;103437.38;5004593;28;20494;-73
2024/01/10 10:11:29;;;;;;;11.20;6.00;;;;;;;-4.33;100.00;103433.75;5000086;28;20038;-74
2024/01/10 10:13:55;;;;;;;11.65;6.10;;;;;;;-4.30;100.00;103433.50;5021147;28;20036;-72
2024/01/10 10:16:26;;;;;;;;;;;;;;;-4.23;100.00;103426.91;5021373;28;20989;-74
2024/01/10 10:18:57;;;;;;;10.52;5.90;;;;;;;-4.14;100.00;103423.63;5021478;28;19939;-74
2024/01/10 10:21:26;;;;;;;13.00;6.43;;;;;;;-4.09;100.00;103427.72;5040630;28;20045;-73
2024/01/10 10:24:00;;;;;;;14.57;7.40;;;;;;;-4.03;100.00;103427.31;5036377;28;20044;-73
2024/01/10 10:26:27;;;;;;;15.85;8.25;;;;;;;-4.04;100.00;103423.84;5017183;28;20154;-74
2024/01/10 10:28:53;;;;;;;11.77;5.95;;;;;;;-4.27;100.00;103430.66;5002389;28;20394;-73
2024/01/10 10:31:20;;;;;;;10.73;5.85;;;;;;;-4.28;100.00;103429.00;5002409;28;20039;-75
2024/01/10 10:33:48;;;;;;;12.18;6.10;;;;;;;-4.23;100.00;103428.69;5023741;28;20188;-75
2024/01/10 10:36:14;;;;;;;10.32;6.40;;;;;;;-4.20;100.00;103429.31;5015876;28;20115;-73
2024/01/10 10:38:40;;;;;;;13.73;6.43;;;;;;;-4.27;100.00;103433.28;5030835;28;20051;-74
2024/01/10 10:41:10;;;;;;;12.35;6.65;;;;;;;-4.24;100.00;103438.31;5032573;28;20758;-73
2024/01/10 10:43:37;;;;;;;12.27;6.70;;;;;;;-4.16;100.00;103436.00;5039258;28;20025;-75
2024/01/10 10:46:14;;;;;;;12.35;6.45;;;;;;;-4.13;100.00;103435.81;5006038;28;20762;-74
2024/01/10 10:48:41;;;;;;;10.50;6.15;;;;;;;-4.19;100.00;103433.63;5038479;28;20045;-73
2024/01/10 10:51:18;;;;;;;10.63;6.05;;;;;;;-4.19;100.00;103428.38;4996910;28;20037;-74
2024/01/10 10:53:47;;;;;;;10.90;6.22;;;;;;;-4.23;100.00;103432.16;5015486;28;20045;-75
2024/01/10 10:56:19;;;;;;;11.35;6.65;;;;;;;-4.22;100.00;103439.03;5019595;28;20524;-74
2024/01/10 10:58:46;;;;;;;11.93;6.28;;;;;;;-4.20;100.00;103436.31;5040508;28;20940;-75
2024/01/10 11:01:13;;;;;;;11.20;6.47;;;;;;;-4.18;100.00;103445.75;5017330;28;20675;-75
2024/01/10 11:03:40;;;;;;;14.90;7.43;;;;;;;-4.27;100.00;103451.59;5040145;28;20063;-74
2024/01/10 11:06:06;;;;;;;12.43;6.45;;;;;;;-4.15;100.00;103450.75;5004533;28;20033;-75